Time;durP1;ratioP1;P1;durP2;ratioP2;P2;SDS_P1;SDS_P2;PMS_P1;PMS_P2;Temp;Humidity;BMP_temperature;BMP_pressure;BME280_temperature;BME280_humidity;BME280_pressure;Samples;Min_cycle;Max_cycle;Signal;HPM_P1;HPM_P2
2024/03/14 00:00:33;;;;;;;;;;;7.80;99.90;;;;;;4969631;28;19929;-63
2024/03/14 00:03:01;;;;;;;;;;;7.80;99.90;;;;;;4986304;28;19926;-63
2024/03/14 00:05:33;;;;;;;;;;;7.80;99.90;;;;;;4985229;28;19926;-62
2024/03/14 00:08:05;;;;;;;;;;;7.80;99.90;;;;;;4980083;28;19930;-63
2024/03/14 00:10:40;;;;;;;;;;;7.70;99.90;;;;;;4975532;28;19926;-63
2024/03/14 00:13:13;;;;;;;;;;;7.80;99.90;;;;;;4978729;28;19939;-63
2024/03/14 00:15:40;;;;;;;;;;;7.80;99.90;;;;;;4978910;28;20012;-63
2024/03/14 00:18:11;;;;;;;;;;;7.80;99.90;;;;;;4989610;28;20016;-63
2024/03/14 00:20:43;;;;;;;;;;;7.80;99.90;;;;;;4973760;28;19930;-63
2024/03/14 00:23:17;;;;;;;;;;;7.90;99.90;;;;;;4988020;28;20465;-63
2024/03/14 00:25:51;;;;;;;;;;;7.80;99.90;;;;;;4986902;28;19926;-63
2024/03/14 00:28:25;;;;;;;;;;;7.70;99.90;;;;;;4986745;28;19937;-63
2024/03/14 00:30:58;;;;;;;;;;;7.60;99.90;;;;;;4982356;28;19926;-63
2024/03/14 00:33:33;;;;;;;;;;;7.50;99.90;;;;;;4982230;28;20028;-63
2024/03/14 00:36:05;;;;;;;;;;;7.50;99.90;;;;;;4984387;28;19936;-63
2024/03/14 00:38:37;;;;;;;;;;;7.40;99.90;;;;;;4978168;28;19932;-63
2024/03/14 00:41:03;;;;;;;;;;;7.40;99.90;;;;;;4984943;28;20032;-63
2024/03/14 00:43:36;;;;;;;;;;;7.40;99.90;;;;;;4968000;28;19933;-63
2024/03/14 00:46:10;;;;;;;;;;;7.40;99.90;;;;;;4983604;28;20418;-63
2024/03/14 00:48:43;;;;;;;;;;;7.40;99.90;;;;;;4987042;28;19930;-63
2024/03/14 00:51:14;;;;;;;;;;;7.40;99.90;;;;;;4987285;28;19938;-63
2024/03/14 00:53:46;;;;;;;;;;;7.30;99.90;;;;;;4985372;28;19981;-63
2024/03/14 00:56:25;;;;;;;;;;;7.30;99.90;;;;;;4976403;28;19926;-63
2024/03/14 00:58:57;;;;;;;;;;;7.30;99.90;;;;;;4968094;28;19925;-63
2024/03/14 01:01:28;;;;;;;;;;;7.20;99.90;;;;;;4962718;28;20521;-63
2024/03/14 01:04:01;;;;;;;;;;;7.20;99.90;;;;;;4976996;28;19962;-63
2024/03/14 01:06:32;;;;;;;;;;;7.20;99.90;;;;;;4974116;28;20382;-65
2024/03/14 01:09:07;;;;;;;;;;;7.20;99.90;;;;;;4964943;28;20370;-63
2024/03/14 01:11:40;;;;;;;;;;;7.10;99.90;;;;;;4986911;28;19966;-64
2024/03/14 01:14:11;;;;;;;;;;;7.10;99.90;;;;;;4985905;28;19988;-63
2024/03/14 01:16:43;;;;;;;;;;;7.10;99.90;;;;;;4984908;28;20020;-63
2024/03/14 01:19:11;;;;;;;;;;;7.00;99.90;;;;;;4983579;28;19932;-63
2024/03/14 01:21:43;;;;;;;;;;;7.00;99.90;;;;;;4987807;28;19930;-63
2024/03/14 01:24:15;;;;;;;;;;;7.00;99.90;;;;;;4984189;28;19940;-63
2024/03/14 01:26:48;;;;;;;;;;;6.90;99.90;;;;;;4972970;28;19930;-63
2024/03/14 01:29:20;;;;;;;;;;;6.90;99.90;;;;;;4987788;28;19930;-63
2024/03/14 01:31:51;;;;;;;;;;;6.90;99.90;;;;;;4978893;28;20005;-63
2024/03/14 01:34:23;;;;;;;;;;;6.80;99.90;;;;;;4987974;28;19937;-63
2024/03/14 01:37:01;;;;;;;;;;;6.80;99.90;;;;;;4983620;28;19930;-63
2024/03/14 01:39:35;;;;;;;;;;;6.70;99.90;;;;;;4984518;28;19993;-63
2024/03/14 01:42:11;;;;;;;;;;;6.70;99.90;;;;;;4985814;28;19981;-63
2024/03/14 01:44:57;;;;;;;;;;;6.70;99.90;;;;;;4984904;28;19949;-63
2024/03/14 01:47:29;;;;;;;;;;;6.70;99.90;;;;;;4982627;28;19930;-63
2024/03/14 01:50:05;;;;;;;;;;;6.70;99.90;;;;;;4981308;28;19926;-63
2024/03/14 01:52:37;;;;;;;;;;;6.70;99.90;;;;;;4985332;28;19934;-63
2024/03/14 01:55:09;;;;;;;;;;;6.70;99.90;;;;;;4980296;28;20394;-63
2024/03/14 01:57:42;;;;;;;;;;;6.60;99.90;;;;;;4972640;28;19926;-63
2024/03/14 02:00:18;;;;;;;;;;;6.70;99.90;;;;;;4975009;28;20428;-63
2024/03/14 02:02:50;;;;;;;;;;;6.70;99.90;;;;;;4979286;28;19932;-63
2024/03/14 02:05:26;;;;;;;;;;;6.70;99.90;;;;;;4984034;28;19926;-63
2024/03/14 02:07:58;;;;;;;;;;;6.70;99.90;;;;;;4984628;28;19929;-63
2024/03/14 02:10:30;;;;;;;;;;;6.70;99.90;;;;;;4984728;28;19984;-63
2024/03/14 02:13:02;;;;;;;;;;;6.70;99.90;;;;;;4985782;28;19936;-63
2024/03/14 02:15:35;;;;;;;;;;;6.70;99.90;;;;;;4971310;28;19930;-63
2024/03/14 02:18:06;;;;;;;;;;;6.70;99.90;;;;;;4981969;28;20017;-63
2024/03/14 02:20:33;;;;;;;;;;;6.70;99.90;;;;;;4976367;28;20417;-63
2024/03/14 02:23:05;;;;;;;;;;;6.70;99.90;;;;;;4977410;28;19933;-63
2024/03/14 02:25:36;;;;;;;;;;;6.70;99.90;;;;;;4978846;28;20033;-63
2024/03/14 02:28:08;;;;;;;;;;;6.70;99.90;;;;;;4976766;28;19984;-62
2024/03/14 02:30:35;;;;;;;;;;;6.70;99.90;;;;;;4985304;28;19932;-63
2024/03/14 02:33:07;;;;;;;;;;;6.70;99.90;;;;;;4982654;28;19930;-63
2024/03/14 02:35:42;;;;;;;;;;;6.70;99.90;;;;;;4972898;28;19953;-63
2024/03/14 02:38:14;;;;;;;;;;;6.60;99.90;;;;;;4972644;28;19934;-63
2024/03/14 02:40:46;;;;;;;;;;;6.60;99.90;;;;;;4972220;28;20017;-63
2024/03/14 02:43:12;;;;;;;;;;;6.60;99.90;;;;;;4981436;28;20336;-63
2024/03/14 02:45:44;;;;;;;;;;;6.50;99.90;;;;;;4974792;28;19934;-62
2024/03/14 02:48:16;;;;;;;;;;;6.50;99.90;;;;;;4973979;28;19961;-63
2024/03/14 02:50:49;;;;;;;;;;;6.50;99.90;;;;;;4976185;28;19958;-63
2024/03/14 02:53:20;;;;;;;;;;;6.50;99.90;;;;;;4983891;28;19992;-63
2024/03/14 02:55:47;;;;;;;;;;;6.50;99.90;;;;;;4972402;28;19926;-63
2024/03/14 02:58:19;;;;;;;;;;;6.50;99.90;;;;;;4981748;28;19936;-63
2024/03/14 03:00:53;;;;;;;;;;;6.40;99.90;;;;;;4972539;28;20394;-63
2024/03/14 03:03:20;;;;;;;;;;;6.40;99.90;;;;;;4974086;28;20013;-63
2024/03/14 03:05:51;;;;;;;;;;;6.40;99.90;;;;;;4983872;28;19930;-63
2024/03/14 03:08:23;;;;;;;;;;;6.30;99.90;;;;;;4981354;28;19930;-63
2024/03/14 03:10:55;;;;;;;;;;;6.30;99.90;;;;;;4986383;28;19966;-63
2024/03/14 03:13:27;;;;;;;;;;;6.20;99.90;;;;;;4977902;28;19926;-63
2024/03/14 03:15:58;;;;;;;;;;;6.20;99.90;;;;;;4971710;28;19936;-63
2024/03/14 03:18:32;;;;;;;;;;;6.20;99.90;;;;;;4982049;28;19926;-63
2024/03/14 03:20:59;;;;;;;;;;;6.10;99.90;;;;;;4977592;28;20500;-63
2024/03/14 03:23:26;;;;;;;;;;;6.10;99.90;;;;;;4974325;28;19965;-63
2024/03/14 03:25:57;;;;;;;;;;;6.00;99.90;;;;;;4983418;28;20398;-63
2024/03/14 03:28:30;;;;;;;;;;;5.90;99.90;;;;;;4983778;28;19926;-63
2024/03/14 03:31:08;;;;;;;;;;;5.90;99.90;;;;;;4981706;28;20410;-63
2024/03/14 03:33:35;;;;;;;;;;;6.00;99.90;;;;;;4986950;28;19929;-63
2024/03/14 03:36:07;;;;;;;;;;;5.90;99.90;;;;;;4972552;28;19926;-63
2024/03/14 03:38:40;;;;;;;;;;;5.90;99.90;;;;;;4976213;28;19969;-63
2024/03/14 03:41:12;;;;;;;;;;;5.90;99.90;;;;;;4983346;28;19970;-63
2024/03/14 03:43:43;;;;;;;;;;;5.80;99.90;;;;;;4977603;28;19926;-63
2024/03/14 03:46:16;;;;;;;;;;;5.80;99.90;;;;;;4978005;28;19970;-63
2024/03/14 03:48:47;;;;;;;;;;;5.80;99.90;;;;;;4985290;28;19969;-63
2024/03/14 03:51:20;;;;;;;;;;;5.70;99.90;;;;;;4985152;28;19926;-63
2024/03/14 03:53:52;;;;;;;;;;;5.70;99.90;;;;;;4977043;28;19930;-63
2024/03/14 03:56:24;;;;;;;;;;;5.60;99.90;;;;;;4977538;28;20024;-63
2024/03/14 03:58:58;;;;;;;;;;;5.60;99.90;;;;;;4987921;28;19982;-63
2024/03/14 04:01:33;;;;;;;;;;;5.60;99.90;;;;;;4983374;28;20025;-63
2024/03/14 04:04:04;;;;;;;;;;;5.60;99.90;;;;;;4992832;28;20020;-63
2024/03/14 04:06:36;;;;;;;;;;;5.60;99.90;;;;;;4980666;28;19933;-63
2024/03/14 04:09:14;;;;;;;;;;;5.70;99.90;;;;;;4974639;28;20028;-63
2024/03/14 04:11:46;;;;;;;;;;;5.70;99.90;;;;;;4984338;28;19925;-63
2024/03/14 04:14:18;;;;;;;;;;;5.70;99.90;;;;;;4984552;28;19976;-63
2024/03/14 04:16:49;;;;;;;;;;;5.70;99.90;;;;;;4986333;28;19973;-63
2024/03/14 04:19:21;;;;;;;;;;;5.70;99.90;;;;;;4987980;28;19957;-63
2024/03/14 04:21:53;;;;;;;;;;;5.70;99.90;;;;;;4984744;28;20505;-63
2024/03/14 04:24:25;;;;;;;;;;;5.70;99.90;;;;;;4976219;28;19930;-63
2024/03/14 04:26:58;;;;;;;;;;;5.70;99.90;;;;;;4977387;28;20412;-62
2024/03/14 04:29:30;;;;;;;;;;;5.60;99.90;;;;;;4989585;28;19992;-64
2024/03/14 04:32:02;;;;;;;;;;;5.60;99.90;;;;;;4979462;28;19989;-63
2024/03/14 04:34:36;;;;;;;;;;;5.50;99.90;;;;;;4989732;28;19948;-63
2024/03/14 04:37:08;;;;;;;;;;;5.50;99.90;;;;;;4981537;28;19930;-63
2024/03/14 04:39:40;;;;;;;;;;;5.50;99.90;;;;;;4965090;28;19936;-63
2024/03/14 04:42:12;;;;;;;;;;;5.40;99.90;;;;;;4986687;28;19930;-62
2024/03/14 04:44:43;;;;;;;;;;;5.40;99.90;;;;;;4985022;28;19925;-63
2024/03/14 04:47:15;;;;;;;;;;;5.40;99.90;;;;;;4986749;28;19930;-62
2024/03/14 04:49:47;;;;;;;;;;;5.40;99.90;;;;;;4984823;28;20425;-62
2024/03/14 04:52:19;;;;;;;;;;;5.40;99.90;;;;;;4988647;28;19969;-63
2024/03/14 04:54:51;;;;;;;;;;;5.30;99.90;;;;;;4967084;28;20013;-62
2024/03/14 04:57:22;;;;;;;;;;;5.30;99.90;;;;;;4979284;28;19926;-62
2024/03/14 04:59:54;;;;;;;;;;;5.40;99.90;;;;;;4973299;28;19974;-62
2024/03/14 05:02:21;;;;;;;;;;;5.30;99.90;;;;;;4985061;28;19926;-62
2024/03/14 05:04:52;;;;;;;;;;;5.30;99.90;;;;;;4985326;28;19933;-63
2024/03/14 05:07:25;;;;;;;;;;;5.30;99.90;;;;;;4985367;28;20410;-63
2024/03/14 05:09:57;;;;;;;;;;;5.30;99.90;;;;;;4985756;28;19932;-63
2024/03/14 05:12:24;;;;;;;;;;;5.40;99.90;;;;;;4989072;28;20338;-63
2024/03/14 05:14:51;;;;;;;;;;;5.30;99.90;;;;;;4985840;28;20454;-63
2024/03/14 05:17:22;;;;;;;;;;;5.30;99.90;;;;;;4989558;28;19933;-62
2024/03/14 05:19:55;;;;;;;;;;;5.20;99.90;;;;;;4975380;28;20384;-63
2024/03/14 05:22:28;;;;;;;;;;;5.20;99.90;;;;;;4992428;28;19934;-62
2024/03/14 05:25:06;;;;;;;;;;;5.20;99.90;;;;;;4981681;28;20391;-63
2024/03/14 05:27:37;;;;;;;;;;;5.20;99.90;;;;;;4983413;28;19926;-64
2024/03/14 05:30:12;;;;;;;;;;;5.20;99.90;;;;;;4997316;28;20309;-62
2024/03/14 05:32:40;;;;;;;;;;;5.20;99.90;;;;;;4994833;28;19936;-63
2024/03/14 05:35:11;;;;;;;;;;;5.20;99.90;;;;;;4999213;28;20025;-63
2024/03/14 05:37:44;;;;;;;;;;;5.20;99.90;;;;;;4979101;28;20305;-62
2024/03/14 05:40:16;;;;;;;;;;;5.20;99.90;;;;;;4992562;28;20008;-63
2024/03/14 05:42:48;;;;;;;;;;;5.20;99.90;;;;;;4993571;28;19925;-64
2024/03/14 05:45:16;;;;;;;;;;;5.20;99.90;;;;;;4997170;28;20027;-63
2024/03/14 05:47:43;;;;;;;;;;;5.10;99.90;;;;;;4987571;28;19926;-63
2024/03/14 05:50:10;;;;;;;;;;;5.20;99.90;;;;;;4989070;28;20864;-62
2024/03/14 05:52:42;;;;;;;;;;;5.20;99.90;;;;;;4987911;28;19933;-63
2024/03/14 05:55:09;;;;;;;;;;;5.20;99.90;;;;;;4981268;28;19926;-63
2024/03/14 05:57:43;;;;;;;;;;;5.20;99.90;;;;;;4987581;28;19925;-63
2024/03/14 06:00:15;;;;;;;;;;;5.20;99.90;;;;;;4965520;28;19926;-62
2024/03/14 06:02:47;;;;;;;;;;;5.20;99.90;;;;;;4987744;28;19925;-63
2024/03/14 06:05:15;;;;;;;;;;;5.20;99.90;;;;;;4989631;28;20020;-63
2024/03/14 06:07:46;;;;;;;;;;;5.30;99.90;;;;;;4973476;28;19940;-63
2024/03/14 06:10:19;;;;;;;;;;;5.30;99.90;;;;;;4987831;28;19925;-62
2024/03/14 06:12:51;;;;;;;;;;;5.30;99.90;;;;;;4989209;28;19926;-63
2024/03/14 06:15:23;;;;;;;;;;;5.30;99.90;;;;;;4988201;28;19973;-63
2024/03/14 06:17:54;;;;;;;;;;;5.40;99.90;;;;;;4985360;28;20025;-62
2024/03/14 06:20:24;;;;;;;;;;;5.40;99.90;;;;;;4970283;28;20317;-63
2024/03/14 06:22:58;;;;;;;;;;;5.50;99.90;;;;;;4986021;28;19925;-63
2024/03/14 06:25:29;;;;;;;;;;;5.50;99.90;;;;;;4983904;28;19929;-62
2024/03/14 06:27:56;;;;;;;;;;;5.60;99.90;;;;;;4968422;28;19925;-63
2024/03/14 06:30:29;;;;;;;;;;;5.60;99.90;;;;;;4988567;28;19988;-62
2024/03/14 06:33:01;;;;;;;;;;;5.70;99.90;;;;;;4987109;28;19933;-62
2024/03/14 06:35:34;;;;;;;;;;;5.70;99.90;;;;;;4983062;28;20786;-63
2024/03/14 06:38:05;;;;;;;;;;;5.70;99.90;;;;;;4968920;28;20884;-63
2024/03/14 06:40:38;;;;;;;;;;;5.70;99.90;;;;;;4983444;28;19937;-63
2024/03/14 06:43:10;;;;;;;;;;;5.70;99.90;;;;;;4982762;28;20034;-62
2024/03/14 06:45:42;;;;;;;;;;;5.80;99.90;;;;;;4985883;28;19932;-63
2024/03/14 06:48:15;;;;;;;;;;;5.80;99.90;;;;;;4981696;28;19936;-63
2024/03/14 06:50:43;;;;;;;;;;;5.90;99.90;;;;;;4982924;28;19983;-62
2024/03/14 06:53:16;;;;;;;;;;;5.90;99.90;;;;;;4965862;28;19930;-62
2024/03/14 06:55:49;;;;;;;;;;;5.90;99.90;;;;;;4985276;28;20444;-63
2024/03/14 06:58:21;;;;;;;;;;;6.00;99.90;;;;;;4985507;28;20357;-62
2024/03/14 07:00:54;;;;;;;;;;;6.00;99.90;;;;;;4983838;28;20394;-62
2024/03/14 07:03:27;;;;;;;;;;;6.10;99.90;;;;;;4985276;28;19930;-63
2024/03/14 07:05:58;;;;;;;;;;;6.10;99.90;;;;;;4984994;28;20017;-62
2024/03/14 07:08:31;;;;;;;;;;;6.10;99.90;;;;;;4985740;28;19949;-62
2024/03/14 07:11:04;;;;;;;;;;;6.10;99.90;;;;;;4985556;28;20022;-62
2024/03/14 07:13:36;;;;;;;;;;;6.10;99.90;;;;;;4966476;28;20241;-62
2024/03/14 07:16:11;;;;;;;;;;;6.10;99.90;;;;;;4984160;28;19932;-62
2024/03/14 07:18:38;;;;;;;;;;;6.20;99.90;;;;;;4983649;28;20394;-62
2024/03/14 07:21:12;;;;;;;;;;;6.20;99.90;;;;;;4984191;28;20370;-62
2024/03/14 07:23:47;;;;;;;;;;;6.30;99.90;;;;;;4992165;28;20638;-63
2024/03/14 07:26:32;;;;;;;;;;;6.30;99.90;;;;;;4991427;28;20024;-63
2024/03/14 07:29:05;;;;;;;;;;;6.30;99.90;;;;;;4976336;28;19930;-63
2024/03/14 07:31:38;;;;;;;;;;;6.40;99.90;;;;;;4986888;28;19946;-62
2024/03/14 07:34:10;;;;;;;;;;;6.40;99.90;;;;;;4985885;28;19926;-62
2024/03/14 07:36:42;;;;;;;;;;;6.40;99.90;;;;;;4984713;28;20025;-63
2024/03/14 07:39:10;;;;;;;;;;;6.50;99.90;;;;;;4980860;28;19934;-63
2024/03/14 07:41:42;;;;;;;;;;;6.50;99.90;;;;;;4988704;28;20585;-62
2024/03/14 07:44:14;;;;;;;;;;;6.60;99.90;;;;;;4981980;28;19934;-63
2024/03/14 07:46:46;;;;;;;;;;;6.60;99.90;;;;;;4985282;28;19930;-63
2024/03/14 07:49:18;;;;;;;;;;;6.60;99.90;;;;;;4985505;28;19934;-63
2024/03/14 07:51:49;;;;;;;;;;;6.70;99.90;;;;;;4971035;28;19925;-63
2024/03/14 07:54:16;;;;;;;;;;;6.70;99.90;;;;;;4983928;28;20569;-62
2024/03/14 07:56:49;;;;;;;;;;;6.80;99.90;;;;;;4985565;28;19936;-62
2024/03/14 07:59:23;;;;;;;;;;;6.80;99.90;;;;;;4985960;28;19965;-62
2024/03/14 08:01:56;;;;;;;;;;;6.90;99.90;;;;;;4983371;28;19926;-62
2024/03/14 08:04:29;;;;;;;;;;;6.90;99.90;;;;;;4984858;28;19933;-62
2024/03/14 08:07:10;;;;;;;;;;;7.00;99.90;;;;;;4978323;28;20391;-62
2024/03/14 08:09:45;;;;;;;;;;;7.00;99.90;;;;;;4974557;28;20016;-62
2024/03/14 08:12:17;;;;;;;;;;;7.00;99.90;;;;;;4984608;28;19929;-62
2024/03/14 08:14:46;;;;;;;;;;;7.00;99.90;;;;;;4985940;28;19926;-62
2024/03/14 08:17:20;;;;;;;;;;;7.20;99.90;;;;;;4984475;28;19926;-63
2024/03/14 08:19:56;;;;;;;;;;;7.30;99.90;;;;;;4987723;28;19936;-62
2024/03/14 08:22:29;;;;;;;;;;;7.30;99.90;;;;;;4984665;28;19930;-62
2024/03/14 08:25:03;;;;;;;;;;;7.40;99.90;;;;;;4980457;28;19934;-62
2024/03/14 08:27:35;;;;;;;;;;;7.50;99.90;;;;;;4982284;28;19961;-63
2024/03/14 08:30:10;;;;;;;;;;;7.60;99.90;;;;;;4980057;28;19985;-63
2024/03/14 08:32:43;;;;;;;;;;;7.60;99.90;;;;;;4980821;28;19933;-63
2024/03/14 08:35:15;;;;;;;;;;;7.70;99.90;;;;;;4982803;28;19926;-62
2024/03/14 08:37:43;;;;;;;;;;;7.80;99.90;;;;;;4982809;28;19930;-63
2024/03/14 08:40:15;;;;;;;;;;;7.90;99.90;;;;;;4982141;28;19933;-62
2024/03/14 08:42:47;;;;;;;;;;;8.10;99.90;;;;;;4986155;28;19977;-63
2024/03/14 08:45:18;;;;;;;;;;;8.10;99.90;;;;;;4986408;28;20561;-63
2024/03/14 08:47:51;;;;;;;;;;;8.20;99.90;;;;;;4985430;28;19929;-63
2024/03/14 08:50:23;;;;;;;;;;;8.30;99.90;;;;;;4970389;28;19926;-63
2024/03/14 08:52:55;;;;;;;;;;;8.40;99.90;;;;;;4981179;28;19930;-62
2024/03/14 08:55:34;;;;;;;;;;;8.50;99.90;;;;;;4978331;28;20147;-63
2024/03/14 08:58:08;;;;;;;;;;;8.60;99.90;;;;;;4977644;28;19937;-62
2024/03/14 09:00:40;;;;;;;;;;;8.70;99.90;;;;;;4981712;28;19934;-62
2024/03/14 09:03:13;;;;;;;;;;;8.80;99.90;;;;;;4983272;28;19932;-62
2024/03/14 09:05:45;;;;;;;;;;;8.90;99.90;;;;;;4987444;28;19933;-63
2024/03/14 09:08:24;;;;;;;;;;;8.90;99.90;;;;;;4984696;28;19956;-62
2024/03/14 09:10:56;;;;;;;;;;;8.90;99.90;;;;;;4984216;28;20386;-63
2024/03/14 09:13:30;;;;;;;;;;;8.90;99.90;;;;;;4987257;28;19964;-62
2024/03/14 09:15:57;;;;;;;;;;;9.00;99.90;;;;;;4985496;28;19964;-62
2024/03/14 09:18:29;;;;;;;;;;;9.10;99.90;;;;;;4988596;28;19936;-62
2024/03/14 09:21:00;;;;;;;;;;;9.10;99.90;;;;;;4973056;28;20390;-62
2024/03/14 09:23:29;;;;;;;;;;;9.20;99.90;;;;;;4979236;28;20473;-62
2024/03/14 09:26:02;;;;;;;;;;;9.30;99.90;;;;;;4987223;28;19937;-62
2024/03/14 09:28:34;;;;;;;;;;;9.40;99.90;;;;;;4986678;28;19933;-62
2024/03/14 09:31:08;;;;;;;;;;;9.40;99.90;;;;;;4971507;28;19932;-62
2024/03/14 09:33:40;;;;;;;;;;;9.40;99.90;;;;;;4983678;28;19926;-62
2024/03/14 09:36:13;;;;;;;;;;;9.40;99.90;;;;;;4972417;28;19930;-62
2024/03/14 09:38:45;;;;;;;;;;;9.50;99.90;;;;;;4981329;28;19926;-62
2024/03/14 09:41:17;;;;;;;;;;;9.60;99.90;;;;;;4983471;28;19926;-62
2024/03/14 09:43:49;;;;;;;;;;;9.70;99.90;;;;;;4982782;28;19934;-62
2024/03/14 09:46:19;;;;;;;;;;;9.80;99.90;;;;;;4971982;28;20324;-62
2024/03/14 09:48:51;;;;;;;;;;;9.80;99.90;;;;;;4976237;28;19933;-63
2024/03/14 09:51:23;;;;;;;;;;;9.80;99.90;;;;;;4982142;28;20011;-62
2024/03/14 09:53:55;;;;;;;;;;;9.90;99.90;;;;;;4984591;28;20344;-62
2024/03/14 09:56:27;;;;;;;;;;;10.00;99.90;;;;;;4972092;28;19936;-62
2024/03/14 09:58:59;;;;;;;;;;;10.00;99.90;;;;;;4986144;28;19926;-62
2024/03/14 10:01:30;;;;;;;;;;;10.00;99.90;;;;;;4982129;28;19925;-62
2024/03/14 10:04:02;;;;;;;;;;;10.10;99.90;;;;;;4985958;28;19926;-62
2024/03/14 10:06:29;;;;;;;;;;;10.10;99.90;;;;;;4972558;28;19926;-62
2024/03/14 10:09:00;;;;;;;;;;;10.20;99.90;;;;;;4988260;28;19926;-62
2024/03/14 10:11:28;;;;;;;;;;;10.30;99.90;;;;;;4978852;28;20697;-62
2024/03/14 10:14:21;;;;;;;;;;;10.30;99.90;;;;;;4980694;28;19984;-62
2024/03/14 10:16:53;;;;;;;;;;;10.40;99.90;;;;;;4983628;28;19930;-62
2024/03/14 10:19:30;;;;;;;;;;;10.40;99.90;;;;;;4979182;28;19968;-62
2024/03/14 10:22:03;;;;;;;;;;;10.50;99.90;;;;;;4971765;28;19991;-63
2024/03/14 10:24:35;;;;;;;;;;;10.50;99.90;;;;;;4979323;28;19930;-62
2024/03/14 10:27:07;;;;;;;;;;;10.60;99.90;;;;;;4983945;28;20517;-62
2024/03/14 10:29:39;;;;;;;;;;;10.70;99.90;;;;;;4978728;28;19952;-62
2024/03/14 10:32:11;;;;;;;;;;;10.70;99.90;;;;;;4984395;28;20656;-62
2024/03/14 10:34:43;;;;;;;;;;;10.80;99.90;;;;;;4982652;28;19926;-62
2024/03/14 10:37:15;;;;;;;;;;;10.90;99.90;;;;;;4982500;28;19937;-62
2024/03/14 10:39:58;;;;;;;;;;;10.90;99.90;;;;;;4984195;28;20445;-62
2024/03/14 10:42:30;;;;;;;;;;;11.10;99.90;;;;;;4964065;28;20029;-62
2024/03/14 10:45:02;;;;;;;;;;;11.20;99.90;;;;;;4987923;28;20441;-62
2024/03/14 10:47:34;;;;;;;;;;;11.30;99.90;;;;;;4966238;28;19930;-62
2024/03/14 10:50:09;;;;;;;;;;;11.40;99.90;;;;;;4982250;28;19930;-62
2024/03/14 10:52:41;;;;;;;;;;;11.50;99.90;;;;;;4984295;28;19973;-62
2024/03/14 10:55:14;;;;;;;;;;;11.60;99.90;;;;;;4984910;28;19953;-62
2024/03/14 10:57:50;;;;;;;;;;;11.70;99.90;;;;;;4983494;28;19992;-62
2024/03/14 11:00:24;;;;;;;;;;;11.80;99.90;;;;;;4985447;28;20355;-62
2024/03/14 11:02:57;;;;;;;;;;;11.80;99.90;;;;;;4985870;28;19965;-62
2024/03/14 11:05:29;;;;;;;;;;;11.80;99.90;;;;;;4986456;28;19926;-62
2024/03/14 11:08:01;;;;;;;;;;;11.90;99.90;;;;;;4982259;28;19941;-62
2024/03/14 11:10:34;;;;;;;;;;;11.90;99.90;;;;;;4986242;28;19934;-62
2024/03/14 11:13:26;;;;;;;;;;;11.90;99.90;;;;;;4987641;28;19925;-62
2024/03/14 11:15:59;;;;;;;;;;;12.00;99.90;;;;;;4968237;28;19930;-62
2024/03/14 11:18:37;;;;;;;;;;;12.10;99.90;;;;;;4986944;28;20009;-62
2024/03/14 11:21:12;;;;;;;;;;;12.10;99.90;;;;;;4986606;28;19926;-62
2024/03/14 11:23:40;;;;;;;;;;;12.10;99.90;;;;;;4986395;28;19930;-62
2024/03/14 11:26:13;;;;;;;;;;;12.20;99.90;;;;;;4991916;28;20375;-62
2024/03/14 11:28:45;;;;;;;;;;;12.30;99.90;;;;;;4975118;28;19930;-62
2024/03/14 11:31:13;;;;;;;;;;;12.40;99.90;;;;;;4979715;28;19926;-62
2024/03/14 11:33:40;;;;;;;;;;;12.50;99.90;;;;;;4982323;28;19933;-62
2024/03/14 11:36:14;;;;;;;;;;;12.50;99.90;;;;;;4984102;28;19926;-62
2024/03/14 11:38:45;;;;;;;;;;;12.50;99.90;;;;;;4982526;28;19927;-62
2024/03/14 11:41:17;;;;;;;;;;;12.60;99.90;;;;;;4987677;28;19926;-62
2024/03/14 11:43:52;;;;;;;;;;;12.70;99.90;;;;;;4973716;28;19926;-62
2024/03/14 11:46:23;;;;;;;;;;;12.90;99.90;;;;;;4987628;28;19926;-62
2024/03/14 11:48:55;;;;;;;;;;;13.10;99.90;;;;;;4988001;28;19930;-62
2024/03/14 11:51:28;;;;;;;;;;;13.20;99.90;;;;;;4989200;28;19930;-62
2024/03/14 11:54:01;;;;;;;;;;;13.40;99.90;;;;;;4991610;28;20020;-62
2024/03/14 11:56:34;;;;;;;;;;;13.60;99.90;;;;;;4990603;28;19933;-62
2024/03/14 11:59:08;;;;;;;;;;;13.70;99.90;;;;;;4964772;28;20737;-62
2024/03/14 12:01:40;;;;;;;;;;;13.80;99.90;;;;;;4979700;28;19930;-62
2024/03/14 12:04:13;;;;;;;;;;;13.90;99.90;;;;;;4987299;28;20022;-62
2024/03/14 12:06:48;;;;;;;;;;;14.10;99.90;;;;;;4973272;28;19925;-62
2024/03/14 12:09:24;;;;;;;;;;;14.20;99.90;;;;;;4974537;28;20386;-62
2024/03/14 12:11:58;;;;;;;;;;;14.40;99.90;;;;;;4973209;28;20427;-62
2024/03/14 12:14:33;;;;;;;;;;;14.40;99.90;;;;;;4985224;28;19926;-62
2024/03/14 12:17:05;;;;;;;;;;;14.60;99.90;;;;;;4984140;28;19992;-60
2024/03/14 12:19:39;;;;;;;;;;;14.60;99.90;;;;;;4989836;28;19968;-60
2024/03/14 12:22:19;;;;;;;;;;;14.70;99.90;;;;;;4985795;28;20398;-60
2024/03/14 12:24:54;;;;;;;;;;;14.80;99.90;;;;;;4998055;28;19929;-62
2024/03/14 12:27:26;;;;;;;;;;;14.90;99.90;;;;;;4994900;28;19933;-62
2024/03/14 12:29:58;;;;;;;;;;;14.90;99.90;;;;;;4973997;28;19926;-62
2024/03/14 12:32:30;;;;;;;;;;;15.00;99.90;;;;;;4983990;28;20688;-62
2024/03/14 12:35:03;;;;;;;;;;;15.10;99.90;;;;;;4990585;28;20406;-62
2024/03/14 12:37:35;;;;;;;;;;;15.10;99.90;;;;;;4987169;28;19980;-62
2024/03/14 12:40:11;;;;;;;;;;;15.30;99.90;;;;;;4986128;28;19930;-62
2024/03/14 12:42:44;;;;;;;;;;;15.40;99.90;;;;;;4995109;28;19940;-62
2024/03/14 12:45:16;;;;;;;;;;;15.50;99.90;;;;;;4990321;28;19926;-62
2024/03/14 12:47:48;;;;;;;;;;;15.50;99.90;;;;;;4984199;28;19930;-62
2024/03/14 12:50:24;;;;;;;;;;;15.50;99.90;;;;;;4983219;28;19925;-62
2024/03/14 12:53:07;;;;;;;;;;;15.50;99.90;;;;;;4984771;28;19957;-62
2024/03/14 12:55:34;;;;;;;;;;;15.40;99.90;;;;;;4968802;28;19933;-62
2024/03/14 12:58:08;;;;;;;;;;;15.30;99.90;;;;;;4987981;28;19930;-62
2024/03/14 13:00:40;;;;;;;;;;;15.40;99.90;;;;;;4988464;28;20473;-62
2024/03/14 13:03:18;;;;;;;;;;;15.50;99.90;;;;;;4991395;28;19934;-62
2024/03/14 13:05:55;;;;;;;;;;;15.50;99.90;;;;;;4984223;28;19968;-62
2024/03/14 13:08:24;;;;;;;;;;;15.70;99.90;;;;;;4983818;28;19926;-62
2024/03/14 13:11:11;;;;;;;;;;;15.70;99.90;;;;;;4964839;28;20315;-62
2024/03/14 13:13:42;;;;;;;;;;;15.80;99.90;;;;;;4985316;28;19926;-62
2024/03/14 13:16:19;;;;;;;;;;;15.90;99.90;;;;;;4984653;28;19944;-63
2024/03/14 13:18:53;;;;;;;;;;;16.10;99.90;;;;;;4984410;28;19933;-62
2024/03/14 13:21:24;;;;;;;;;;;16.00;99.90;;;;;;4983689;28;19926;-62
2024/03/14 13:23:51;;;;;;;;;;;16.00;99.90;;;;;;4982746;28;20025;-62
2024/03/14 13:26:23;;;;;;;;;;;15.90;99.90;;;;;;4989150;28;19934;-62
2024/03/14 13:28:55;;;;;;;;;;;15.90;99.90;;;;;;4984389;28;19930;-61
2024/03/14 13:31:25;;;;;;;;;;;15.90;99.90;;;;;;4969919;28;19949;-62
2024/03/14 13:33:59;;;;;;;;;;;15.90;99.90;;;;;;4987513;28;19932;-62
2024/03/14 13:36:36;;;;;;;;;;;16.00;99.90;;;;;;4986298;28;20013;-62
2024/03/14 13:39:12;;;;;;;;;;;16.00;99.90;;;;;;4982018;28;19938;-62
2024/03/14 13:41:52;;;;;;;;;;;16.00;99.90;;;;;;4983489;28;20136;-62
2024/03/14 13:44:24;;;;;;;;;;;16.10;99.90;;;;;;4992540;28;19960;-62
2024/03/14 13:46:56;;;;;;;;;;;16.00;99.90;;;;;;4989361;28;20405;-62
2024/03/14 13:49:23;;;;;;;;;;;16.10;99.90;;;;;;4990507;28;19965;-62
2024/03/14 13:51:56;;;;;;;;;;;16.10;99.90;;;;;;4985158;28;19936;-62
2024/03/14 13:54:28;;;;;;;;;;;16.20;99.90;;;;;;4983484;28;20012;-62
2024/03/14 13:57:00;;;;;;;;;;;16.20;99.90;;;;;;4989393;28;20235;-61
2024/03/14 13:59:33;;;;;;;;;;;16.10;99.90;;;;;;4988906;28;19925;-62
2024/03/14 14:02:07;;;;;;;;;;;16.10;99.90;;;;;;4986320;28;20024;-63
2024/03/14 14:04:39;;;;;;;;;;;16.00;99.90;;;;;;4985902;28;19926;-62
2024/03/14 14:07:13;;;;;;;;;;;16.00;99.90;;;;;;4992753;28;19977;-62
2024/03/14 14:09:45;;;;;;;;;;;16.10;99.90;;;;;;4980269;28;19953;-62
2024/03/14 14:12:16;;;;;;;;;;;16.20;99.90;;;;;;4985780;28;19925;-62
2024/03/14 14:14:48;;;;;;;;;;;16.30;99.90;;;;;;4991541;28;19933;-62
2024/03/14 14:17:20;;;;;;;;;;;16.40;99.90;;;;;;4987824;28;19930;-62
2024/03/14 14:19:54;;;;;;;;;;;16.40;99.90;;;;;;4983578;28;19933;-62
2024/03/14 14:22:28;;;;;;;;;;;16.60;99.90;;;;;;4969135;28;19933;-62
2024/03/14 14:25:00;;;;;;;;;;;16.70;99.90;;;;;;4988927;28;20028;-62
2024/03/14 14:27:31;;;;;;;;;;;16.90;99.90;;;;;;4990202;28;19940;-63
2024/03/14 14:30:04;;;;;;;;;;;17.00;99.90;;;;;;4974107;28;19926;-62
2024/03/14 14:32:37;;;;;;;;;;;17.10;99.90;;;;;;4988785;28;20427;-62
2024/03/14 14:35:09;;;;;;;;;;;17.20;99.90;;;;;;4987153;28;19985;-62
2024/03/14 14:37:41;;;;;;;;;;;17.30;99.90;;;;;;4977928;28;19929;-61
2024/03/14 14:40:13;;;;;;;;;;;17.30;99.90;;;;;;4983903;28;19941;-62
2024/03/14 14:42:40;;;;;;;;;;;17.30;99.90;;;;;;4985462;28;20293;-62
2024/03/14 14:45:12;;;;;;;;;;;17.30;99.90;;;;;;4987099;28;19975;-62
2024/03/14 14:47:45;;;;;;;;;;;17.20;99.90;;;;;;4977928;28;19960;-62
2024/03/14 14:50:17;;;;;;;;;;;17.30;99.90;;;;;;4985931;28;19949;-62
2024/03/14 14:52:48;;;;;;;;;;;17.30;99.90;;;;;;4986624;28;19929;-69
2024/03/14 14:55:18;;;;;;;;;;;17.40;99.90;;;;;;4970385;28;19930;-62